Time;durP1;ratioP1;P1;durP2;ratioP2;P2;SDS_P1;SDS_P2;PMS_P1;PMS_P2;Temp;Humidity;BMP_temperature;BMP_pressure;BME280_temperature;BME280_humidity;BME280_pressure;Samples;Min_cycle;Max_cycle;Signal;HPM_P1;HPM_P2
2023/11/11 00:02:18;;;;;;;9.13;1.95;;;11.20;99.90;;;;;;10542450;28;20036;-36
2023/11/11 00:07:20;;;;;;;13.15;1.88;;;10.80;99.90;;;;;;10535981;28;20039;-34
2023/11/11 00:12:23;;;;;;;7.00;1.80;;;11.10;99.90;;;;;;10536978;28;20199;-35
2023/11/11 00:17:25;;;;;;;8.90;1.40;;;11.40;99.90;;;;;;10537550;28;20522;-42
2023/11/11 00:22:28;;;;;;;6.63;1.73;;;10.70;99.90;;;;;;10531922;28;20040;-36
2023/11/11 00:27:31;;;;;;;9.87;2.03;;;11.10;99.90;;;;;;10538138;28;23737;-31
2023/11/11 00:32:34;;;;;;;10.65;1.70;;;11.50;99.90;;;;;;10550221;28;21033;-32
2023/11/11 00:37:35;;;;;;;4.25;2.00;;;11.80;99.90;;;;;;10546140;28;20039;-32
2023/11/11 00:42:38;;;;;;;6.45;2.35;;;10.80;99.90;;;;;;10546948;28;20585;-33
2023/11/11 00:47:40;;;;;;;3.63;1.17;;;11.60;99.90;;;;;;10549090;28;20039;-32
2023/11/11 00:52:42;;;;;;;7.30;1.17;;;11.20;99.90;;;;;;10546565;28;20048;-35
2023/11/11 00:57:46;;;;;;;8.27;2.47;;;11.50;99.90;;;;;;10540374;28;20063;-36
2023/11/11 01:02:48;;;;;;;10.40;1.35;;;11.90;99.90;;;;;;10554035;28;20044;-33
2023/11/11 01:07:50;;;;;;;6.03;1.70;;;11.80;99.90;;;;;;10549653;28;20393;-32
2023/11/11 01:12:54;;;;;;;7.57;2.03;;;11.40;99.90;;;;;;10535993;28;20609;-37
2023/11/11 01:17:56;;;;;;;5.55;1.65;;;11.10;99.90;;;;;;10549161;28;20077;-34
2023/11/11 01:22:58;;;;;;;7.93;3.10;;;11.00;99.90;;;;;;10539504;27;20219;-48
2023/11/11 01:28:01;;;;;;;4.13;1.85;;;11.90;99.90;;;;;;10549010;28;20039;-32
2023/11/11 01:33:06;;;;;;;7.03;2.25;;;11.20;99.90;;;;;;10547513;28;20048;-33
2023/11/11 01:38:08;;;;;;;13.38;1.98;;;11.50;99.90;;;;;;10547358;28;20044;-32
2023/11/11 01:43:12;;;;;;;7.97;1.98;;;10.80;99.90;;;;;;10540768;28;20046;-33
2023/11/11 01:48:16;;;;;;;11.70;2.20;;;10.30;99.90;;;;;;10537795;28;20035;-33
2023/11/11 01:53:19;;;;;;;10.60;2.97;;;10.10;99.90;;;;;;10539128;28;20059;-36
2023/11/11 01:58:22;;;;;;;12.30;2.08;;;10.50;99.90;;;;;;10551503;28;20087;-32
2023/11/11 02:03:24;;;;;;;12.07;1.83;;;10.10;99.90;;;;;;10546395;28;20036;-37
2023/11/11 02:08:30;;;;;;;9.68;2.42;;;10.00;99.90;;;;;;10529370;28;20039;-37
2023/11/11 02:13:35;;;;;;;8.35;2.22;;;10.00;99.90;;;;;;10535893;28;20048;-33
2023/11/11 02:18:37;;;;;;;9.68;1.80;;;10.20;99.90;;;;;;10536795;28;20146;-37
2023/11/11 02:23:40;;;;;;;2.95;1.35;;;11.00;99.90;;;;;;10536747;28;20038;-30
2023/11/11 02:28:42;;;;;;;8.05;1.63;;;10.00;99.90;;;;;;10552017;28;20135;-35
2023/11/11 02:33:44;;;;;;;5.05;1.48;;;9.80;99.90;;;;;;10547285;28;20134;-31
2023/11/11 02:38:47;;;;;;;2.67;1.37;;;10.70;99.90;;;;;;10539578;28;20091;-29
2023/11/11 02:43:49;;;;;;;;;;;10.20;99.90;;;;;;10545908;28;20153;-43
2023/11/11 02:48:50;;;;;;;5.68;1.85;;;10.10;99.90;;;;;;10533638;28;20359;-40
2023/11/11 02:53:54;;;;;;;7.72;2.00;;;10.50;99.90;;;;;;10518887;28;20048;-42
2023/11/11 02:58:56;;;;;;;;;;;10.50;99.90;;;;;;10548895;28;20044;-36
2023/11/11 03:03:57;;;;;;;5.32;1.83;;;9.90;99.90;;;;;;10543683;28;20363;-37
2023/11/11 03:09:01;;;;;;;4.65;2.13;;;9.90;99.90;;;;;;10538388;28;20047;-31
2023/11/11 03:14:03;;;;;;;9.18;2.17;;;10.30;99.90;;;;;;10541466;28;20055;-38
2023/11/11 03:19:05;;;;;;;12.38;2.58;;;10.20;99.90;;;;;;10537243;28;20047;-36
2023/11/11 03:24:09;;;;;;;7.27;1.73;;;10.20;99.90;;;;;;10531614;28;20500;-37
2023/11/11 03:29:11;;;;;;;7.50;1.52;;;10.20;99.90;;;;;;10543672;28;20517;-38
2023/11/11 03:34:13;;;;;;;11.57;1.60;;;10.20;99.90;;;;;;10536451;28;20039;-34
2023/11/11 03:39:16;;;;;;;6.45;1.92;;;10.50;99.90;;;;;;10545991;28;20154;-32
2023/11/11 03:44:18;;;;;;;6.45;1.80;;;10.20;99.90;;;;;;10539912;28;20064;-44
2023/11/11 03:49:20;;;;;;;4.68;1.63;;;10.40;99.90;;;;;;10541996;28;20036;-43
2023/11/11 03:54:23;;;;;;;3.42;1.20;;;10.90;99.90;;;;;;10539159;28;20140;-33
2023/11/11 04:15:30;;;;;;;8.43;1.80;;;9.40;99.90;;;;;;10546116;27;20110;-36
2023/11/11 04:20:32;;;;;;;;;;;9.80;99.90;;;;;;10568736;28;20527;-36
2023/11/11 04:25:33;;;;;;;4.22;1.60;;;10.20;99.90;;;;;;10570968;28;19915;-45
2023/11/11 04:30:37;;;;;;;5.63;1.67;;;10.30;99.90;;;;;;10571788;28;20035;-31
2023/11/11 04:35:39;;;;;;;14.95;1.70;;;9.80;99.90;;;;;;10566321;28;20055;-32
2023/11/11 04:40:42;;;;;;;6.90;1.73;;;9.80;99.90;;;;;;10580544;28;20086;-32
2023/11/11 04:45:45;;;;;;;;;;;9.40;99.90;;;;;;10572739;28;20458;-31
2023/11/11 04:50:47;;;;;;;6.22;1.95;;;9.50;99.90;;;;;;10573737;28;19920;-34
2023/11/11 04:55:48;;;;;;;5.00;1.63;;;10.20;99.90;;;;;;10575043;28;20062;-35
2023/11/11 05:00:52;;;;;;;5.15;1.13;;;10.10;99.90;;;;;;10565020;28;20381;-46
2023/11/11 05:05:53;;;;;;;4.50;1.80;;;10.00;99.90;;;;;;10578597;28;20486;-35
2023/11/11 05:10:56;;;;;;;5.07;1.63;;;9.70;99.90;;;;;;10569282;28;20100;-39
2023/11/11 05:16:03;;;;;;;7.85;1.90;;;9.90;99.90;;;;;;10562967;28;20050;-38
2023/11/11 05:21:05;;;;;;;26.90;3.13;;;10.70;99.90;;;;;;10573077;28;20118;-43
2023/11/11 05:26:07;;;;;;;9.50;2.00;;;9.90;99.90;;;;;;10538413;28;20445;-36
2023/11/11 05:31:10;;;;;;;7.95;1.58;;;10.10;99.90;;;;;;10540249;28;20037;-32
2023/11/11 05:36:13;;;;;;;;;;;10.20;99.90;;;;;;10545612;28;20044;-36
2023/11/11 05:41:15;;;;;;;5.38;1.70;;;10.10;99.90;;;;;;10539987;28;19916;-35
2023/11/11 05:46:19;;;;;;;8.48;1.50;;;10.50;99.90;;;;;;10532523;28;20075;-44
2023/11/11 05:51:21;;;;;;;8.25;1.67;;;10.20;99.90;;;;;;10534736;28;20047;-38
2023/11/11 05:56:23;;;;;;;7.35;2.63;;;11.10;99.90;;;;;;10542765;28;20085;-33
2023/11/11 06:01:28;;;;;;;6.35;1.48;;;10.50;99.90;;;;;;10535819;28;20040;-35
2023/11/11 06:06:30;;;;;;;7.63;2.35;;;10.70;99.90;;;;;;10533697;27;20054;-33
2023/11/11 06:11:31;;;;;;;9.98;2.22;;;10.30;99.90;;;;;;10537233;28;20062;-37
2023/11/11 06:16:35;;;;;;;17.52;2.05;;;10.20;99.90;;;;;;10535468;28;20048;-36
2023/11/11 06:21:37;;;;;;;;;;;9.90;99.90;;;;;;10540834;28;20476;-36
2023/11/11 06:26:38;;;;;;;7.75;1.73;;;10.90;99.90;;;;;;10539964;28;19923;-38
2023/11/11 06:31:43;;;;;;;7.03;2.38;;;9.70;99.90;;;;;;10545319;28;20040;-38
2023/11/11 06:36:45;;;;;;;6.28;1.40;;;10.20;99.90;;;;;;10539527;28;20067;-31
2023/11/11 06:41:47;;;;;;;3.42;1.33;;;10.50;99.90;;;;;;10533951;28;20388;-33
2023/11/11 06:46:50;;;;;;;4.90;1.20;;;10.60;99.90;;;;;;10536081;28;20456;-30
2023/11/11 06:51:52;;;;;;;3.30;1.20;;;10.20;99.90;;;;;;10520155;28;20502;-37
2023/11/11 06:56:56;;;;;;;9.50;2.15;;;10.50;99.90;;;;;;10518565;28;20542;-48
2023/11/11 07:01:59;;;;;;;5.93;1.42;;;10.20;99.90;;;;;;10515264;28;20186;-33
2023/11/11 07:07:01;;;;;;;7.40;1.60;;;10.20;99.90;;;;;;10527311;28;20049;-32
2023/11/11 07:12:04;;;;;;;5.25;1.15;;;10.80;99.90;;;;;;10532671;28;20190;-35
2023/11/11 07:17:08;;;;;;;8.10;1.48;;;11.00;99.90;;;;;;10530459;28;20542;-32
2023/11/11 07:22:10;;;;;;;9.68;3.05;;;10.40;99.90;;;;;;10531325;28;20051;-38
2023/11/11 07:27:14;;;;;;;5.17;1.50;;;11.00;99.90;;;;;;10529479;28;20048;-36
2023/11/11 07:32:17;;;;;;;8.68;1.45;;;10.90;98.60;;;;;;10522937;28;20052;-45
2023/11/11 07:37:19;;;;;;;;;;;10.60;99.90;;;;;;10522047;28;20067;-34
2023/11/11 07:42:21;;;;;;;4.93;1.00;;;9.70;99.90;;;;;;10515461;28;20430;-41
2023/11/11 07:47:25;;;;;;;6.18;1.45;;;10.80;99.90;;;;;;10509972;28;20468;-33
2023/11/11 07:52:26;;;;;;;5.30;1.10;;;10.10;99.90;;;;;;10513717;28;20408;-36
2023/11/11 07:57:29;;;;;;;5.20;1.20;;;11.40;99.90;;;;;;10534397;28;20145;-32
2023/11/11 08:02:32;;;;;;;1.92;0.82;;;10.60;99.90;;;;;;10505952;28;20043;-36
2023/11/11 08:07:34;;;;;;;3.60;1.10;;;11.00;99.90;;;;;;10517578;28;20088;-30
2023/11/11 08:12:36;;;;;;;7.18;1.08;;;10.80;99.90;;;;;;10517341;28;20629;-43
2023/11/11 08:17:40;;;;;;;5.55;1.15;;;11.30;99.80;;;;;;10529426;28;20585;-36
2023/11/11 08:22:43;;;;;;;5.72;1.58;;;10.50;99.90;;;;;;10527891;28;20392;-36
2023/11/11 08:27:45;;;;;;;2.73;0.73;;;11.30;99.90;;;;;;10509543;28;20053;-32
2023/11/11 08:32:49;;;;;;;11.25;1.08;;;11.40;99.90;;;;;;10527783;28;20080;-37
2023/11/11 08:37:50;;;;;;;4.55;0.77;;;10.60;99.90;;;;;;10533788;28;20126;-36
2023/11/11 08:42:52;;;;;;;7.35;1.20;;;10.70;99.90;;;;;;10526930;28;20120;-38
2023/11/11 08:47:55;;;;;;;1.67;0.77;;;11.50;99.90;;;;;;10515542;28;20048;-34
2023/11/11 08:52:58;;;;;;;3.05;0.70;;;12.00;99.90;;;;;;10529339;28;20441;-49
2023/11/11 08:58:00;;;;;;;4.65;1.02;;;11.50;99.90;;;;;;10526255;28;20150;-36
2023/11/11 09:03:04;;;;;;;3.05;0.98;;;11.70;99.90;;;;;;10530500;28;20075;-32
2023/11/11 09:08:06;;;;;;;4.75;1.85;;;12.10;99.90;;;;;;10533244;28;20522;-35
2023/11/11 09:13:10;;;;;;;3.60;1.00;;;11.20;98.50;;;;;;10534411;28;20051;-33
2023/11/11 09:18:14;;;;;;;2.60;0.50;;;11.30;99.90;;;;;;10506959;28;20044;-31
2023/11/11 09:23:16;;;;;;;1.80;0.60;;;12.20;90.60;;;;;;10529002;28;20058;-34
2023/11/11 09:28:17;;;;;;;5.15;0.65;;;14.60;99.80;;;;;;10529224;28;20075;-34
2023/11/11 09:33:21;;;;;;;3.85;0.90;;;12.20;99.90;;;;;;10546000;28;20040;-48
2023/11/11 09:38:23;;;;;;;4.60;1.05;;;11.50;96.40;;;;;;10530213;28;20392;-42
2023/11/11 09:43:25;;;;;;;6.07;0.80;;;11.50;99.90;;;;;;10534821;28;20488;-32
2023/11/11 09:48:28;;;;;;;1.75;0.68;;;11.00;97.30;;;;;;10526346;28;20124;-35
2023/11/11 09:53:32;;;;;;;;;;;11.50;97.60;;;;;;10531023;28;20075;-35
2023/11/11 09:58:35;;;;;;;3.80;0.80;;;11.50;99.90;;;;;;10531568;28;19916;-31
2023/11/11 10:03:39;;;;;;;5.28;0.98;;;11.20;95.80;;;;;;10524277;28;20048;-41
2023/11/11 10:08:41;;;;;;;5.90;1.00;;;12.10;99.90;;;;;;10537775;28;20529;-38
2023/11/11 10:13:43;;;;;;;2.17;0.80;;;11.00;97.90;;;;;;10531764;28;20185;-34
2023/11/11 10:18:49;;;;;;;3.87;0.70;;;12.40;99.90;;;;;;10525083;28;20487;-37
2023/11/11 10:23:52;;;;;;;3.80;1.80;;;12.40;93.70;;;;;;10526126;28;20090;-35
2023/11/11 10:28:54;;;;;;;2.92;1.25;;;11.80;98.60;;;;;;10532471;28;20043;-31
2023/11/11 10:33:57;;;;;;;2.25;0.93;;;12.20;97.20;;;;;;10545207;28;20072;-30
2023/11/11 10:38:59;;;;;;;1.30;0.60;;;11.40;98.10;;;;;;10518080;28;20063;-32
2023/11/11 10:44:01;;;;;;;6.72;1.15;;;12.50;99.90;;;;;;10526875;28;20037;-32
2023/11/11 10:49:06;;;;;;;4.50;1.20;;;12.30;96.70;;;;;;10517242;28;20117;-37
2023/11/11 10:54:09;;;;;;;4.32;0.90;;;12.10;99.90;;;;;;10524482;28;20066;-34
2023/11/11 10:59:11;;;;;;;2.55;1.30;;;13.20;95.70;;;;;;10514410;28;20044;-39
2023/11/11 11:04:14;;;;;;;4.03;1.02;;;12.60;99.90;;;;;;10523741;28;20048;-39
2023/11/11 11:09:28;;;;;;;3.80;1.20;;;12.60;99.50;;;;;;10518033;28;20093;-31
2023/11/11 11:14:44;;;;;;;3.17;1.00;;;12.00;98.20;;;;;;10521739;28;20128;-32
2023/11/11 11:19:55;;;;;;;4.40;1.15;;;12.10;97.60;;;;;;10517493;28;20039;-36
2023/11/11 11:24:56;;;;;;;6.07;1.77;;;12.90;99.90;;;;;;10528837;28;20047;-40
2023/11/11 11:30:23;;;;;;;5.40;1.23;;;12.30;98.60;;;;;;10530861;28;20399;-43
2023/11/11 11:35:28;;;;;;;5.13;1.27;;;12.30;99.90;;;;;;10527671;28;20036;-32
2023/11/11 11:40:31;;;;;;;3.70;1.20;;;12.40;96.10;;;;;;10519977;28;20044;-36
2023/11/11 11:45:33;;;;;;;3.55;1.00;;;11.80;97.90;;;;;;10525122;28;20135;-39
2023/11/11 11:50:36;;;;;;;2.40;1.15;;;11.90;99.90;;;;;;10535316;28;20035;-31
2023/11/11 11:55:40;;;;;;;6.10;2.67;;;12.30;99.90;;;;;;10533546;28;20040;-44
2023/11/11 12:00:42;;;;;;;3.15;1.67;;;11.80;99.20;;;;;;10533819;28;20143;-37
2023/11/11 12:05:48;;;;;;;3.78;1.58;;;12.80;98.60;;;;;;10525327;28;20059;-35
2023/11/11 12:10:51;;;;;;;7.55;1.48;;;12.70;99.90;;;;;;10526701;28;20044;-39
2023/11/11 12:15:53;;;;;;;5.63;1.30;;;12.40;99.90;;;;;;10526871;28;20387;-40
2023/11/11 12:20:56;;;;;;;2.47;1.27;;;12.10;99.80;;;;;;10529154;28;20044;-45
2023/11/11 12:25:59;;;;;;;7.20;1.30;;;11.90;96.30;;;;;;10522889;28;20074;-31
2023/11/11 12:31:04;;;;;;;2.63;1.03;;;12.50;99.80;;;;;;10516415;28;20054;-32
2023/11/11 12:36:08;;;;;;;3.00;1.10;;;13.40;98.00;;;;;;10541522;28;20488;-40
2023/11/11 12:41:13;;;;;;;5.88;1.02;;;12.70;99.90;;;;;;10544601;28;20054;-32
2023/11/11 12:46:15;;;;;;;4.38;0.90;;;12.40;99.10;;;;;;10525292;28;20080;-38
2023/11/11 12:51:30;;;;;;;1.92;1.00;;;12.70;97.60;;;;;;10532709;28;20048;-34
2023/11/11 12:56:32;;;;;;;4.50;0.90;;;12.70;95.60;;;;;;10545577;28;20085;-39
2023/11/11 13:01:35;;;;;;;3.55;1.13;;;13.00;97.10;;;;;;10530695;28;20102;-33
2023/11/11 13:06:38;;;;;;;3.35;1.05;;;12.80;97.30;;;;;;10536925;28;20044;-41
2023/11/11 13:11:40;;;;;;;5.53;1.10;;;13.40;99.20;;;;;;10544016;28;20889;-38
2023/11/11 13:16:42;;;;;;;2.50;0.60;;;13.00;94.10;;;;;;10540851;28;20505;-48
2023/11/11 13:21:47;;;;;;;3.78;1.42;;;13.10;92.40;;;;;;10536711;28;20045;-34
2023/11/11 13:26:51;;;;;;;3.63;1.02;;;13.80;92.90;;;;;;10539576;28;20059;-31
2023/11/11 13:31:55;;;;;;;3.50;0.80;;;13.50;96.90;;;;;;10532684;28;20127;-39
2023/11/11 13:36:59;;;;;;;1.67;0.80;;;13.80;98.90;;;;;;10531555;28;20123;-41
2023/11/11 13:42:05;;;;;;;7.38;0.93;;;12.90;96.80;;;;;;10529216;28;20066;-32
2023/11/11 13:47:08;;;;;;;3.00;1.13;;;13.70;94.00;;;;;;10532507;28;20142;-40
2023/11/11 13:52:11;;;;;;;1.95;1.10;;;13.20;93.30;;;;;;10543923;28;20089;-38
2023/11/11 13:57:15;;;;;;;2.13;0.63;;;14.10;95.20;;;;;;10536034;28;20066;-34
2023/11/11 14:02:17;;;;;;;3.80;0.57;;;14.00;90.60;;;;;;10534557;28;20055;-34
2023/11/11 14:07:20;;;;;;;3.33;1.38;;;14.00;92.00;;;;;;10537227;28;20083;-31
2023/11/11 14:12:22;;;;;;;1.25;0.50;;;14.00;95.00;;;;;;10528920;28;20048;-35
2023/11/11 14:17:24;;;;;;;2.30;0.93;;;13.90;93.90;;;;;;10540660;28;20142;-35
2023/11/11 14:22:29;;;;;;;1.92;0.90;;;14.70;93.10;;;;;;10531332;28;20040;-37
2023/11/11 14:27:31;;;;;;;0.95;0.30;;;14.30;87.60;;;;;;10526240;28;20040;-31
2023/11/11 14:32:33;;;;;;;4.05;1.02;;;13.60;86.90;;;;;;10528902;28;20707;-38
2023/11/11 14:37:37;;;;;;;3.27;0.87;;;13.50;92.70;;;;;;10521864;28;20139;-38
2023/11/11 14:42:38;;;;;;;4.20;1.67;;;14.40;95.00;;;;;;10529019;28;20480;-40
2023/11/11 14:47:42;;;;;;;4.57;1.85;;;15.90;98.40;;;;;;10525358;28;20064;-37
2023/11/11 14:52:48;;;;;;;3.35;1.05;;;15.20;91.00;;;;;;10529530;28;20051;-42
2023/11/11 14:57:50;;;;;;;8.05;1.05;;;13.90;94.70;;;;;;10533981;28;20403;-32
2023/11/11 15:02:52;;;;;;;6.27;0.93;;;14.10;87.00;;;;;;10532370;28;20044;-36
2023/11/11 15:07:55;;;;;;;3.08;0.75;;;14.40;94.20;;;;;;10531051;28;20124;-41
2023/11/11 15:12:57;;;;;;;3.70;1.20;;;14.40;99.90;;;;;;10521225;28;20136;-29
2023/11/11 15:17:59;;;;;;;1.90;0.53;;;15.40;99.00;;;;;;10522639;28;20592;-37
2023/11/11 15:23:09;;;;;;;1.80;1.00;;;14.60;89.70;;;;;;10536995;28;20075;-44
2023/11/11 15:28:11;;;;;;;1.67;1.33;;;15.00;90.00;;;;;;10529065;28;20047;-36
2023/11/11 15:33:13;;;;;;;1.75;1.23;;;15.20;99.90;;;;;;10527505;28;20123;-32
2023/11/11 15:38:16;;;;;;;1.60;0.60;;;14.40;98.60;;;;;;10524974;28;20113;-44
2023/11/11 15:43:18;;;;;;;4.72;0.93;;;13.60;90.70;;;;;;10530837;28;20079;-41
2023/11/11 15:48:20;;;;;;;5.25;2.10;;;13.70;99.30;;;;;;10528678;28;20503;-42
2023/11/11 15:53:23;;;;;;;4.55;1.30;;;14.10;99.90;;;;;;10527713;28;20106;-40
2023/11/11 15:58:25;;;;;;;5.97;1.10;;;14.40;99.90;;;;;;10514422;28;20039;-46
2023/11/11 16:03:27;;;;;;;6.70;1.80;;;14.80;99.90;;;;;;10532898;28;20049;-38
2023/11/11 16:08:30;;;;;;;2.35;1.23;;;13.20;99.90;;;;;;10528509;28;20516;-33
2023/11/11 16:13:32;;;;;;;3.28;0.93;;;14.30;99.90;;;;;;10536357;28;20062;-34
2023/11/11 16:18:34;;;;;;;3.85;0.93;;;12.60;95.10;;;;;;10525202;28;20438;-36
2023/11/11 16:23:37;;;;;;;2.88;0.88;;;12.80;95.20;;;;;;10527232;28;20044;-35
2023/11/11 16:28:38;;;;;;;3.20;1.42;;;12.40;99.90;;;;;;10526129;28;21519;-32
2023/11/11 16:33:40;;;;;;;4.75;2.33;;;13.30;99.90;;;;;;10528047;28;20146;-39
2023/11/11 16:38:44;;;;;;;3.70;1.10;;;13.10;99.90;;;;;;10540683;28;20139;-33
2023/11/11 16:43:46;;;;;;;7.40;1.02;;;13.20;99.90;;;;;;10533513;28;20052;-38
2023/11/11 16:48:48;;;;;;;2.60;1.27;;;12.10;99.90;;;;;;10529292;28;20134;-34
2023/11/11 16:53:52;;;;;;;3.17;1.00;;;11.90;99.90;;;;;;10533095;28;20044;-39
2023/11/11 16:58:53;;;;;;;4.63;0.85;;;11.70;99.90;;;;;;10533979;28;20145;-30
2023/11/11 17:03:56;;;;;;;4.25;1.58;;;12.20;99.90;;;;;;10528125;28;20055;-32
2023/11/11 17:08:59;;;;;;;3.40;1.80;;;11.80;99.90;;;;;;10541570;28;20112;-34
2023/11/11 17:14:00;;;;;;;3.58;1.52;;;14.50;99.90;;;;;;10538145;28;20048;-33
2023/11/11 17:19:02;;;;;;;3.22;1.05;;;12.50;99.90;;;;;;10538504;28;20132;-31
2023/11/11 17:24:10;;;;;;;5.82;1.30;;;11.40;99.90;;;;;;10525470;28;20072;-45
2023/11/11 17:29:11;;;;;;;7.72;2.25;;;11.80;99.90;;;;;;10543381;28;20056;-37
2023/11/11 17:34:13;;;;;;;2.90;0.93;;;12.20;99.90;;;;;;10534124;28;20060;-37
2023/11/11 17:39:18;;;;;;;13.43;1.70;;;12.20;99.90;;;;;;10534425;28;20130;-36
2023/11/11 17:44:20;;;;;;;4.93;2.05;;;11.90;99.90;;;;;;10539121;28;20526;-35
2023/11/11 17:49:22;;;;;;;6.22;1.60;;;12.00;99.90;;;;;;10539854;28;20036;-44
2023/11/11 17:54:28;;;;;;;4.20;1.98;;;13.00;99.90;;;;;;10517787;28;20130;-34
2023/11/11 17:59:31;;;;;;;7.15;2.20;;;12.90;99.90;;;;;;10531802;28;20043;-35
2023/11/11 18:04:33;;;;;;;7.22;2.47;;;11.80;99.90;;;;;;10534058;28;20042;-31
2023/11/11 18:09:36;;;;;;;6.70;1.73;;;12.90;99.90;;;;;;10538672;28;20472;-40
2023/11/11 18:14:38;;;;;;;6.35;2.63;;;12.80;99.90;;;;;;10537044;28;20089;-36
2023/11/11 18:19:41;;;;;;;10.05;2.67;;;14.90;99.90;;;;;;10522914;28;20085;-30
2023/11/11 18:24:44;;;;;;;4.55;2.80;;;15.80;99.90;;;;;;10535742;28;20044;-36
2023/11/11 18:29:45;;;;;;;9.57;4.70;;;17.30;98.80;;;;;;10538455;28;20063;-31
2023/11/11 18:34:47;;;;;;;7.00;4.78;;;15.30;99.90;;;;;;10532842;28;20440;-35
2023/11/11 18:39:51;;;;;;;7.37;4.60;;;15.80;99.90;;;;;;10536777;28;20032;-31
2023/11/11 18:44:53;;;;;;;7.60;3.67;;;15.60;99.90;;;;;;10536364;28;20389;-35
2023/11/11 18:49:55;;;;;;;13.80;6.53;;;15.90;99.00;;;;;;10540897;28;20086;-32
2023/11/11 18:54:58;;;;;;;14.80;6.47;;;15.40;99.90;;;;;;10532455;28;20642;-31
2023/11/11 19:00:03;;;;;;;13.80;6.45;;;16.30;99.90;;;;;;10543951;28;20051;-51
2023/11/11 19:05:06;;;;;;;13.57;5.40;;;16.50;97.40;;;;;;10533477;28;20047;-31
2023/11/11 19:10:10;;;;;;;12.27;3.50;;;14.20;99.90;;;;;;10523147;28;20044;-31
2023/11/11 19:15:12;;;;;;;12.23;3.97;;;12.00;99.90;;;;;;10524856;28;20146;-36
2023/11/11 19:20:19;;;;;;;25.50;5.10;;;11.30;99.90;;;;;;10538839;28;20078;-30
2023/11/11 19:25:23;;;;;;;19.42;9.27;;;11.20;99.90;;;;;;10534634;28;20113;-33
2023/11/11 19:30:26;;;;;;;8.88;4.20;;;14.80;99.90;;;;;;10527810;28;20048;-35
2023/11/11 19:35:28;;;;;;;12.43;6.13;;;16.40;96.10;;;;;;10532496;28;20408;-32
2023/11/11 19:40:31;;;;;;;10.88;5.00;;;16.20;99.90;;;;;;10531606;28;20177;-31
2023/11/11 19:45:35;;;;;;;9.60;5.10;;;16.10;99.90;;;;;;10534906;28;20113;-32
2023/11/11 19:50:41;;;;;;;12.15;6.53;;;16.00;99.90;;;;;;10528607;28;20159;-36
2023/11/11 19:55:46;;;;;;;12.05;5.53;;;17.10;97.60;;;;;;10528561;28;20062;-34
2023/11/11 20:00:49;;;;;;;12.23;5.07;;;17.00;98.20;;;;;;10534329;28;20033;-39
2023/11/11 20:05:51;;;;;;;7.20;3.55;;;16.90;97.80;;;;;;10527851;28;20119;-35
2023/11/11 20:10:54;;;;;;;10.25;5.65;;;17.00;97.00;;;;;;10514651;28;20043;-36
2023/11/11 20:15:56;;;;;;;9.07;5.88;;;17.60;95.60;;;;;;10517728;28;20686;-32
2023/11/11 20:20:58;;;;;;;9.27;5.45;;;17.90;95.20;;;;;;10523172;28;20377;-30
2023/11/11 20:26:03;;;;;;;7.95;4.18;;;18.10;94.20;;;;;;10538789;28;20156;-43
2023/11/11 20:31:05;;;;;;;11.43;6.72;;;18.10;93.90;;;;;;10533886;28;20040;-33
2023/11/11 20:36:07;;;;;;;18.13;8.23;;;18.10;93.80;;;;;;10539296;28;20097;-39
2023/11/11 20:41:10;;;;;;;12.35;7.22;;;18.20;93.50;;;;;;10539100;28;20110;-37
2023/11/11 20:46:19;;;;;;;17.08;9.25;;;18.20;93.30;;;;;;10519132;28;20125;-32
2023/11/11 20:51:21;;;;;;;11.32;7.70;;;18.20;93.00;;;;;;10523625;28;20113;-32
2023/11/11 20:56:24;;;;;;;16.50;9.93;;;18.20;92.90;;;;;;10531693;28;20580;-39
2023/11/11 21:01:26;;;;;;;16.65;9.20;;;18.20;92.80;;;;;;10529665;28;20588;-36
2023/11/11 21:06:28;;;;;;;20.13;10.10;;;18.20;92.60;;;;;;10536430;28;20059;-32
2023/11/11 21:11:31;;;;;;;14.97;9.27;;;18.20;92.60;;;;;;10537739;28;20048;-39
2023/11/11 21:16:32;;;;;;;19.67;9.93;;;18.30;92.40;;;;;;10538195;28;20526;-41
2023/11/11 21:21:34;;;;;;;17.73;11.23;;;18.30;92.30;;;;;;10542603;28;20066;-31
2023/11/11 21:26:38;;;;;;;20.77;11.00;;;18.30;92.20;;;;;;10542066;28;20527;-34
2023/11/11 21:31:39;;;;;;;17.95;9.95;;;18.30;92.10;;;;;;10537857;28;20464;-33
2023/11/11 21:36:41;;;;;;;24.77;11.07;;;18.30;92.00;;;;;;10535751;28;20101;-40
2023/11/11 21:41:44;;;;;;;18.87;10.70;;;18.30;91.90;;;;;;10545333;28;20477;-31
2023/11/11 21:46:46;;;;;;;21.08;10.90;;;18.30;91.80;;;;;;10539197;28;22687;-28
2023/11/11 21:51:48;;;;;;;17.67;9.70;;;18.30;91.70;;;;;;10532653;28;20148;-40
2023/11/11 21:56:51;;;;;;;15.87;11.00;;;18.40;91.60;;;;;;10544440;28;20087;-31
2023/11/11 22:01:54;;;;;;;17.65;11.00;;;18.30;91.60;;;;;;10537892;28;20122;-32
2023/11/11 22:06:57;;;;;;;17.27;10.88;;;18.30;91.60;;;;;;10536433;28;20476;-34
2023/11/11 22:12:00;;;;;;;19.52;11.30;;;18.30;91.50;;;;;;10536886;28;20040;-37
2023/11/11 22:17:02;;;;;;;21.33;12.73;;;18.30;91.50;;;;;;10541669;28;20077;-30
2023/11/11 22:22:03;;;;;;;22.80;13.80;;;18.30;91.40;;;;;;10544070;28;20077;-31
2023/11/11 22:27:07;;;;;;;21.67;14.10;;;18.00;92.00;;;;;;10540106;28;20486;-37
2023/11/11 22:32:10;;;;;;;24.35;14.55;;;18.20;91.60;;;;;;10544138;28;20081;-31
2023/11/11 22:37:12;;;;;;;22.90;14.57;;;18.30;91.40;;;;;;10542337;28;20076;-35
2023/11/11 22:42:15;;;;;;;21.77;14.47;;;18.30;91.20;;;;;;10535771;28;20036;-38
2023/11/11 22:47:17;;;;;;;20.98;13.07;;;18.30;91.20;;;;;;10514610;28;20040;-36
2023/11/11 22:52:19;;;;;;;22.10;14.93;;;18.30;91.10;;;;;;10543519;28;20049;-30
2023/11/11 22:57:22;;;;;;;21.40;14.20;;;18.30;91.10;;;;;;10544550;28;20039;-31
2023/11/11 23:02:24;;;;;;;23.05;13.07;;;18.30;90.90;;;;;;10542922;28;20160;-31
2023/11/11 23:07:26;;;;;;;22.10;15.80;;;18.30;90.90;;;;;;10537665;28;20061;-34
2023/11/11 23:12:29;;;;;;;20.55;15.43;;;18.30;91.00;;;;;;10548174;28;20046;-34
2023/11/11 23:17:31;;;;;;;22.80;13.93;;;18.30;90.90;;;;;;10544292;28;20074;-32
2023/11/11 23:22:33;;;;;;;19.50;14.47;;;18.30;90.80;;;;;;10534004;28;20094;-32
2023/11/11 23:27:37;;;;;;;19.23;14.43;;;18.30;90.80;;;;;;10540760;28;20159;-29
2023/11/11 23:32:39;;;;;;;20.40;14.43;;;18.30;90.70;;;;;;10549109;28;20038;-31
2023/11/11 23:37:41;;;;;;;20.17;13.30;;;18.30;90.60;;;;;;10542619;28;20121;-30
2023/11/11 23:42:44;;;;;;;16.73;11.73;;;18.20;90.50;;;;;;10533596;28;20040;-36
2023/11/11 23:47:47;;;;;;;18.30;13.13;;;18.20;90.50;;;;;;10534553;28;20044;-43
2023/11/11 23:52:49;;;;;;;16.25;12.05;;;18.20;90.50;;;;;;10540343;28;20039;-30
2023/11/11 23:57:52;;;;;;;17.23;11.70;;;18.20;90.40;;;;;;10543688;28;20159;-31
